sensor_id;sensor_type;location;lat;lon;timestamp;pressure;altitude;pressure_sealevel;temperature;humidity
71666;BME280;59503;53.486;10.196;2023-04-28T00:00:17;101921.94;;;3.11;100.00
71666;BME280;59503;53.486;10.196;2023-04-28T00:02:42;101914.72;;;3.06;100.00
71666;BME280;59503;53.486;10.196;2023-04-28T00:05:08;101913.16;;;3.00;100.00
71666;BME280;59503;53.486;10.196;2023-04-28T00:07:33;101911.81;;;2.98;100.00
71666;BME280;59503;53.486;10.196;2023-04-28T00:09:59;101912.63;;;2.98;100.00
71666;BME280;59503;53.486;10.196;2023-04-28T00:12:24;101910.00;;;2.93;100.00
71666;BME280;59503;53.486;10.196;2023-04-28T00:14:49;101918.66;;;2.85;100.00
71666;BME280;59503;53.486;10.196;2023-04-28T00:17:15;101902.06;;;2.78;100.00
71666;BME280;59503;53.486;10.196;2023-04-28T00:19:41;101906.34;;;2.79;100.00
71666;BME280;59503;53.486;10.196;2023-04-28T00:22:06;101909.56;;;2.81;100.00
71666;BME280;59503;53.486;10.196;2023-04-28T00:24:31;101886.00;;;2.73;100.00
71666;BME280;59503;53.486;10.196;2023-04-28T00:26:58;101887.09;;;2.72;100.00
71666;BME280;59503;53.486;10.196;2023-04-28T00:29:23;101898.34;;;2.74;100.00
71666;BME280;59503;53.486;10.196;2023-04-28T00:31:48;101901.81;;;2.75;100.00
71666;BME280;59503;53.486;10.196;2023-04-28T00:34:14;101899.97;;;2.75;100.00
71666;BME280;59503;53.486;10.196;2023-04-28T00:36:39;101891.34;;;2.78;100.00
71666;BME280;59503;53.486;10.196;2023-04-28T00:39:05;101900.47;;;2.77;100.00
71666;BME280;59503;53.486;10.196;2023-04-28T00:41:30;101890.84;;;2.71;100.00
71666;BME280;59503;53.486;10.196;2023-04-28T00:43:55;101879.13;;;2.62;100.00
71666;BME280;59503;53.486;10.196;2023-04-28T00:46:23;101893.63;;;2.61;100.00
71666;BME280;59503;53.486;10.196;2023-04-28T00:48:49;101882.91;;;2.56;100.00
71666;BME280;59503;53.486;10.196;2023-04-28T00:51:15;101880.75;;;2.58;100.00
71666;BME280;59503;53.486;10.196;2023-04-28T00:53:41;101876.50;;;2.52;100.00
71666;BME280;59503;53.486;10.196;2023-04-28T00:56:07;101873.03;;;2.51;100.00
71666;BME280;59503;53.486;10.196;2023-04-28T00:58:33;101873.00;;;2.57;100.00
71666;BME280;59503;53.486;10.196;2023-04-28T01:01:06;101874.84;;;2.61;100.00
71666;BME280;59503;53.486;10.196;2023-04-28T01:03:38;101872.16;;;2.61;100.00
71666;BME280;59503;53.486;10.196;2023-04-28T01:06:04;101865.97;;;2.61;100.00
71666;BME280;59503;53.486;10.196;2023-04-28T01:08:30;101866.78;;;2.61;100.00
71666;BME280;59503;53.486;10.196;2023-04-28T01:10:56;101867.88;;;2.60;100.00
71666;BME280;59503;53.486;10.196;2023-04-28T01:13:21;101864.94;;;2.57;100.00
71666;BME280;59503;53.486;10.196;2023-04-28T01:15:47;101866.00;;;2.55;100.00
71666;BME280;59503;53.486;10.196;2023-04-28T01:18:13;101860.41;;;2.52;100.00
71666;BME280;59503;53.486;10.196;2023-04-28T01:20:40;101855.34;;;2.45;100.00
71666;BME280;59503;53.486;10.196;2023-04-28T01:23:11;101877.31;;;2.52;100.00
71666;BME280;59503;53.486;10.196;2023-04-28T01:25:36;101858.84;;;2.46;100.00
71666;BME280;59503;53.486;10.196;2023-04-28T01:28:02;101855.06;;;2.47;100.00
71666;BME280;59503;53.486;10.196;2023-04-28T01:30:27;101854.34;;;2.41;100.00
71666;BME280;59503;53.486;10.196;2023-04-28T01:32:52;101852.47;;;2.37;100.00
71666;BME280;59503;53.486;10.196;2023-04-28T01:35:17;101856.50;;;2.39;100.00
71666;BME280;59503;53.486;10.196;2023-04-28T01:37:43;101837.47;;;2.36;100.00
71666;BME280;59503;53.486;10.196;2023-04-28T01:40:08;101852.19;;;2.43;100.00
71666;BME280;59503;53.486;10.196;2023-04-28T01:42:34;101847.31;;;2.45;100.00
71666;BME280;59503;53.486;10.196;2023-04-28T01:44:59;101843.03;;;2.44;100.00
71666;BME280;59503;53.486;10.196;2023-04-28T01:47:24;101849.44;;;2.48;100.00
71666;BME280;59503;53.486;10.196;2023-04-28T01:49:50;101836.53;;;2.50;100.00
71666;BME280;59503;53.486;10.196;2023-04-28T01:52:15;101841.41;;;2.48;100.00
71666;BME280;59503;53.486;10.196;2023-04-28T01:54:40;101823.16;;;2.45;100.00
71666;BME280;59503;53.486;10.196;2023-04-28T01:57:06;101833.09;;;2.45;100.00
71666;BME280;59503;53.486;10.196;2023-04-28T01:59:31;101826.16;;;2.39;100.00
71666;BME280;59503;53.486;10.196;2023-04-28T02:01:56;101821.94;;;2.33;100.00
71666;BME280;59503;53.486;10.196;2023-04-28T02:04:22;101833.16;;;2.40;100.00
71666;BME280;59503;53.486;10.196;2023-04-28T02:06:47;101832.06;;;2.41;100.00
71666;BME280;59503;53.486;10.196;2023-04-28T02:09:12;101836.28;;;2.47;100.00
71666;BME280;59503;53.486;10.196;2023-04-28T02:11:38;101821.59;;;2.39;100.00
71666;BME280;59503;53.486;10.196;2023-04-28T02:14:03;101827.78;;;2.40;100.00
71666;BME280;59503;53.486;10.196;2023-04-28T02:16:28;101824.28;;;2.39;100.00
71666;BME280;59503;53.486;10.196;2023-04-28T02:18:53;101821.91;;;2.38;100.00
71666;BME280;59503;53.486;10.196;2023-04-28T02:21:19;101823.25;;;2.35;100.00
71666;BME280;59503;53.486;10.196;2023-04-28T02:23:44;101818.72;;;2.31;100.00
71666;BME280;59503;53.486;10.196;2023-04-28T02:26:09;101817.66;;;2.27;100.00
71666;BME280;59503;53.486;10.196;2023-04-28T02:28:35;101817.16;;;2.25;100.00
71666;BME280;59503;53.486;10.196;2023-04-28T02:31:08;101811.00;;;2.24;100.00
71666;BME280;59503;53.486;10.196;2023-04-28T02:33:33;101817.91;;;2.30;100.00
71666;BME280;59503;53.486;10.196;2023-04-28T02:36:00;101805.34;;;2.26;100.00
71666;BME280;59503;53.486;10.196;2023-04-28T02:38:25;101809.09;;;2.30;100.00
71666;BME280;59503;53.486;10.196;2023-04-28T02:43:24;101804.56;;;2.54;100.00
71666;BME280;59503;53.486;10.196;2023-04-28T02:45:50;101799.72;;;2.56;100.00
71666;BME280;59503;53.486;10.196;2023-04-28T02:48:15;101801.34;;;2.57;100.00
71666;BME280;59503;53.486;10.196;2023-04-28T02:50:40;101794.25;;;2.66;100.00
71666;BME280;59503;53.486;10.196;2023-04-28T02:53:06;101788.28;;;2.74;100.00
71666;BME280;59503;53.486;10.196;2023-04-28T02:55:31;101786.06;;;2.81;100.00
71666;BME280;59503;53.486;10.196;2023-04-28T02:57:56;101787.81;;;2.91;100.00
71666;BME280;59503;53.486;10.196;2023-04-28T03:00:22;101792.06;;;2.97;100.00
71666;BME280;59503;53.486;10.196;2023-04-28T03:02:47;101783.97;;;3.02;100.00
71666;BME280;59503;53.486;10.196;2023-04-28T03:05:12;101783.09;;;3.06;100.00
71666;BME280;59503;53.486;10.196;2023-04-28T03:07:37;101770.47;;;3.07;100.00
71666;BME280;59503;53.486;10.196;2023-04-28T03:10:03;101762.72;;;3.05;100.00
71666;BME280;59503;53.486;10.196;2023-04-28T03:12:28;101771.53;;;3.11;100.00
71666;BME280;59503;53.486;10.196;2023-04-28T03:14:54;101760.03;;;3.05;100.00
71666;BME280;59503;53.486;10.196;2023-04-28T03:17:20;101748.81;;;2.98;100.00
71666;BME280;59503;53.486;10.196;2023-04-28T03:19:45;101750.69;;;2.98;100.00
71666;BME280;59503;53.486;10.196;2023-04-28T03:22:10;101747.34;;;2.87;100.00
71666;BME280;59503;53.486;10.196;2023-04-28T03:24:36;101749.50;;;2.85;100.00
71666;BME280;59503;53.486;10.196;2023-04-28T03:27:01;101751.63;;;2.88;100.00
71666;BME280;59503;53.486;10.196;2023-04-28T03:29:30;101752.09;;;2.95;100.00
71666;BME280;59503;53.486;10.196;2023-04-28T03:31:55;101743.50;;;2.93;100.00
71666;BME280;59503;53.486;10.196;2023-04-28T03:34:21;101731.38;;;2.96;100.00
71666;BME280;59503;53.486;10.196;2023-04-28T03:36:46;101741.81;;;3.02;100.00
71666;BME280;59503;53.486;10.196;2023-04-28T03:39:12;101745.09;;;2.94;100.00
71666;BME280;59503;53.486;10.196;2023-04-28T03:41:37;101739.91;;;3.03;100.00
71666;BME280;59503;53.486;10.196;2023-04-28T03:44:02;101729.91;;;3.08;100.00
71666;BME280;59503;53.486;10.196;2023-04-28T03:46:28;101729.91;;;3.08;100.00
71666;BME280;59503;53.486;10.196;2023-04-28T03:48:53;101722.44;;;3.05;100.00
71666;BME280;59503;53.486;10.196;2023-04-28T03:51:18;101722.94;;;3.07;100.00
71666;BME280;59503;53.486;10.196;2023-04-28T03:53:44;101717.81;;;3.11;100.00
71666;BME280;59503;53.486;10.196;2023-04-28T03:56:09;101714.75;;;3.17;100.00
71666;BME280;59503;53.486;10.196;2023-04-28T03:58:34;101717.66;;;3.21;100.00
71666;BME280;59503;53.486;10.196;2023-04-28T04:01:00;101712.78;;;3.23;100.00
71666;BME280;59503;53.486;10.196;2023-04-28T04:03:26;101716.94;;;3.15;100.00
71666;BME280;59503;53.486;10.196;2023-04-28T04:05:51;101715.25;;;3.19;100.00
71666;BME280;59503;53.486;10.196;2023-04-28T04:08:18;101722.00;;;3.17;100.00
71666;BME280;59503;53.486;10.196;2023-04-28T04:10:43;101718.22;;;3.18;100.00
71666;BME280;59503;53.486;10.196;2023-04-28T04:13:08;101720.91;;;3.18;100.00
71666;BME280;59503;53.486;10.196;2023-04-28T04:15:34;101708.41;;;3.08;100.00
71666;BME280;59503;53.486;10.196;2023-04-28T04:17:59;101706.34;;;3.24;100.00
71666;BME280;59503;53.486;10.196;2023-04-28T04:20:25;101710.84;;;3.28;100.00
71666;BME280;59503;53.486;10.196;2023-04-28T04:22:50;101702.56;;;3.25;100.00
71666;BME280;59503;53.486;10.196;2023-04-28T04:25:15;101704.44;;;3.24;100.00
71666;BME280;59503;53.486;10.196;2023-04-28T04:27:41;101701.13;;;3.32;100.00
71666;BME280;59503;53.486;10.196;2023-04-28T04:30:06;101704.59;;;3.33;100.00
71666;BME280;59503;53.486;10.196;2023-04-28T04:32:32;101695.81;;;3.27;100.00
71666;BME280;59503;53.486;10.196;2023-04-28T04:34:57;101697.91;;;3.30;100.00
71666;BME280;59503;53.486;10.196;2023-04-28T04:37:23;101693.84;;;3.33;100.00
71666;BME280;59503;53.486;10.196;2023-04-28T04:39:48;101692.47;;;3.35;100.00
71666;BME280;59503;53.486;10.196;2023-04-28T04:42:13;101696.75;;;3.36;100.00
71666;BME280;59503;53.486;10.196;2023-04-28T04:44:39;101687.03;;;3.40;100.00
71666;BME280;59503;53.486;10.196;2023-04-28T04:47:04;101686.97;;;3.45;100.00
71666;BME280;59503;53.486;10.196;2023-04-28T04:49:30;101688.06;;;3.44;100.00
71666;BME280;59503;53.486;10.196;2023-04-28T04:51:55;101687.53;;;3.42;100.00
71666;BME280;59503;53.486;10.196;2023-04-28T04:54:21;101678.00;;;3.50;100.00
71666;BME280;59503;53.486;10.196;2023-04-28T04:56:46;101678.38;;;3.62;100.00
71666;BME280;59503;53.486;10.196;2023-04-28T04:59:11;101681.88;;;3.62;100.00
71666;BME280;59503;53.486;10.196;2023-04-28T05:01:37;101675.53;;;3.72;100.00
71666;BME280;59503;53.486;10.196;2023-04-28T05:04:02;101678.13;;;3.77;100.00
71666;BME280;59503;53.486;10.196;2023-04-28T05:06:27;101670.78;;;3.83;100.00
71666;BME280;59503;53.486;10.196;2023-04-28T05:08:53;101669.69;;;3.83;100.00
71666;BME280;59503;53.486;10.196;2023-04-28T05:11:20;101674.97;;;3.89;100.00
71666;BME280;59503;53.486;10.196;2023-04-28T05:13:45;101672.41;;;3.97;100.00
71666;BME280;59503;53.486;10.196;2023-04-28T05:16:11;101667.66;;;4.08;100.00
71666;BME280;59503;53.486;10.196;2023-04-28T05:18:36;101665.31;;;4.20;100.00
71666;BME280;59503;53.486;10.196;2023-04-28T05:21:01;101671.50;;;4.34;100.00
71666;BME280;59503;53.486;10.196;2023-04-28T05:23:27;101659.47;;;4.45;100.00
71666;BME280;59503;53.486;10.196;2023-04-28T05:25:52;101665.63;;;4.59;100.00
71666;BME280;59503;53.486;10.196;2023-04-28T05:28:19;101663.34;;;4.66;98.14
71666;BME280;59503;53.486;10.196;2023-04-28T05:30:44;101662.84;;;4.77;97.19
71666;BME280;59503;53.486;10.196;2023-04-28T05:33:09;101654.25;;;4.89;97.14
71666;BME280;59503;53.486;10.196;2023-04-28T05:35:35;101656.03;;;5.07;95.40
71666;BME280;59503;53.486;10.196;2023-04-28T05:38:00;101648.81;;;5.16;93.37
71666;BME280;59503;53.486;10.196;2023-04-28T05:40:26;101642.66;;;5.38;91.70
71666;BME280;59503;53.486;10.196;2023-04-28T05:42:51;101651.16;;;5.67;88.83
71666;BME280;59503;53.486;10.196;2023-04-28T05:45:17;101656.28;;;5.77;88.70
71666;BME280;59503;53.486;10.196;2023-04-28T05:47:42;101640.56;;;5.92;87.92
71666;BME280;59503;53.486;10.196;2023-04-28T05:50:08;101643.53;;;6.13;85.84
71666;BME280;59503;53.486;10.196;2023-04-28T05:52:34;101642.47;;;6.22;82.11
71666;BME280;59503;53.486;10.196;2023-04-28T05:54:59;101639.31;;;6.29;82.63
71666;BME280;59503;53.486;10.196;2023-04-28T05:57:24;101627.78;;;6.46;80.76
71666;BME280;59503;53.486;10.196;2023-04-28T05:59:50;101631.69;;;6.62;78.29
71666;BME280;59503;53.486;10.196;2023-04-28T06:02:15;101630.44;;;6.76;77.26
71666;BME280;59503;53.486;10.196;2023-04-28T06:04:41;101629.19;;;6.91;75.07
71666;BME280;59503;53.486;10.196;2023-04-28T06:07:07;101628.13;;;7.09;73.44
71666;BME280;59503;53.486;10.196;2023-04-28T06:09:32;101632.59;;;7.22;73.36
71666;BME280;59503;53.486;10.196;2023-04-28T06:11:57;101629.72;;;7.27;73.34
71666;BME280;59503;53.486;10.196;2023-04-28T06:14:23;101631.47;;;7.48;71.59
71666;BME280;59503;53.486;10.196;2023-04-28T06:16:49;101632.22;;;7.75;70.45
71666;BME280;59503;53.486;10.196;2023-04-28T06:19:15;101628.84;;;7.95;68.88
71666;BME280;59503;53.486;10.196;2023-04-28T06:21:43;101622.25;;;8.21;69.33
71666;BME280;59503;53.486;10.196;2023-04-28T06:24:08;101613.66;;;8.19;67.29
71666;BME280;59503;53.486;10.196;2023-04-28T06:26:33;101622.84;;;8.35;66.29
71666;BME280;59503;53.486;10.196;2023-04-28T06:28:59;101623.59;;;8.53;65.75
71666;BME280;59503;53.486;10.196;2023-04-28T06:31:24;101631.94;;;8.39;64.15
71666;BME280;59503;53.486;10.196;2023-04-28T06:33:50;101610.78;;;8.33;64.22
71666;BME280;59503;53.486;10.196;2023-04-28T06:36:16;101623.50;;;8.32;65.47
71666;BME280;59503;53.486;10.196;2023-04-28T06:38:44;101627.16;;;8.45;64.98
71666;BME280;59503;53.486;10.196;2023-04-28T06:41:10;101620.28;;;8.39;64.93
71666;BME280;59503;53.486;10.196;2023-04-28T06:43:36;101618.88;;;8.41;64.93
71666;BME280;59503;53.486;10.196;2023-04-28T06:46:02;101620.19;;;8.64;63.60
71666;BME280;59503;53.486;10.196;2023-04-28T06:48:27;101598.69;;;8.59;62.64
71666;BME280;59503;53.486;10.196;2023-04-28T06:50:52;101598.78;;;8.71;63.23
71666;BME280;59503;53.486;10.196;2023-04-28T06:53:18;101607.34;;;9.03;62.44
71666;BME280;59503;53.486;10.196;2023-04-28T06:55:43;101602.56;;;9.00;62.36
71666;BME280;59503;53.486;10.196;2023-04-28T06:58:08;101602.13;;;9.18;62.40
71666;BME280;59503;53.486;10.196;2023-04-28T07:00:34;101599.63;;;9.34;61.19
71666;BME280;59503;53.486;10.196;2023-04-28T07:02:59;101598.31;;;9.52;60.06
71666;BME280;59503;53.486;10.196;2023-04-28T07:05:25;101601.25;;;9.47;59.94
71666;BME280;59503;53.486;10.196;2023-04-28T07:07:51;101582.25;;;9.47;59.95
71666;BME280;59503;53.486;10.196;2023-04-28T07:10:16;101587.88;;;9.42;59.52
71666;BME280;59503;53.486;10.196;2023-04-28T07:12:41;101588.47;;;9.47;59.13
71666;BME280;59503;53.486;10.196;2023-04-28T07:15:07;101596.59;;;9.80;59.83
71666;BME280;59503;53.486;10.196;2023-04-28T07:17:32;101587.34;;;9.81;58.11
71666;BME280;59503;53.486;10.196;2023-04-28T07:19:58;101582.44;;;9.74;57.67
71666;BME280;59503;53.486;10.196;2023-04-28T07:22:23;101582.94;;;9.88;57.83
71666;BME280;59503;53.486;10.196;2023-04-28T07:24:48;101571.06;;;10.05;56.89
71666;BME280;59503;53.486;10.196;2023-04-28T07:27:14;101576.47;;;10.26;56.19
71666;BME280;59503;53.486;10.196;2023-04-28T07:29:39;101575.44;;;10.54;55.88
71666;BME280;59503;53.486;10.196;2023-04-28T07:32:05;101574.25;;;10.91;57.21
71666;BME280;59503;53.486;10.196;2023-04-28T07:34:33;101575.03;;;11.32;53.69
71666;BME280;59503;53.486;10.196;2023-04-28T07:36:58;101562.91;;;11.29;51.71
71666;BME280;59503;53.486;10.196;2023-04-28T07:39:24;101576.25;;;11.34;52.86
71666;BME280;59503;53.486;10.196;2023-04-28T07:41:49;101568.91;;;11.35;51.31
71666;BME280;59503;53.486;10.196;2023-04-28T07:44:15;101565.69;;;11.45;51.05
71666;BME280;59503;53.486;10.196;2023-04-28T07:46:40;101568.00;;;11.58;51.32
71666;BME280;59503;53.486;10.196;2023-04-28T07:49:05;101565.84;;;11.64;49.38
71666;BME280;59503;53.486;10.196;2023-04-28T07:51:32;101568.81;;;11.59;49.18
71666;BME280;59503;53.486;10.196;2023-04-28T07:53:57;101557.72;;;11.79;49.86
71666;BME280;59503;53.486;10.196;2023-04-28T07:56:23;101553.06;;;12.11;49.75
71666;BME280;59503;53.486;10.196;2023-04-28T07:58:49;101557.81;;;12.29;48.99
71666;BME280;59503;53.486;10.196;2023-04-28T08:01:15;101555.84;;;12.61;47.48
71666;BME280;59503;53.486;10.196;2023-04-28T08:03:40;101553.06;;;13.11;47.78
71666;BME280;59503;53.486;10.196;2023-04-28T08:06:06;101537.47;;;12.58;46.03
71666;BME280;59503;53.486;10.196;2023-04-28T08:08:32;101554.31;;;12.64;47.48
71666;BME280;59503;53.486;10.196;2023-04-28T08:10:57;101553.63;;;12.67;47.44
71666;BME280;59503;53.486;10.196;2023-04-28T08:13:23;101551.84;;;12.74;47.07
71666;BME280;59503;53.486;10.196;2023-04-28T08:15:48;101556.53;;;12.58;45.82
71666;BME280;59503;53.486;10.196;2023-04-28T08:18:14;101552.56;;;12.56;46.54
71666;BME280;59503;53.486;10.196;2023-04-28T08:20:40;101540.41;;;12.18;47.14
71666;BME280;59503;53.486;10.196;2023-04-28T08:23:06;101538.13;;;12.55;47.50
71666;BME280;59503;53.486;10.196;2023-04-28T08:25:31;101542.81;;;12.55;48.06
71666;BME280;59503;53.486;10.196;2023-04-28T08:27:56;101535.19;;;12.44;47.38
71666;BME280;59503;53.486;10.196;2023-04-28T08:30:22;101536.59;;;12.38;46.80
71666;BME280;59503;53.486;10.196;2023-04-28T08:32:48;101537.28;;;12.51;46.54
71666;BME280;59503;53.486;10.196;2023-04-28T08:35:13;101537.47;;;12.58;47.28
71666;BME280;59503;53.486;10.196;2023-04-28T08:37:40;101530.53;;;12.80;47.04
71666;BME280;59503;53.486;10.196;2023-04-28T08:40:05;101525.63;;;12.70;45.68
71666;BME280;59503;53.486;10.196;2023-04-28T08:42:34;101524.72;;;13.00;46.06
71666;BME280;59503;53.486;10.196;2023-04-28T08:45:02;101534.47;;;12.82;46.14
71666;BME280;59503;53.486;10.196;2023-04-28T08:47:33;101530.63;;;13.21;46.57
71666;BME280;59503;53.486;10.196;2023-04-28T08:50:03;101524.44;;;13.24;46.11
71666;BME280;59503;53.486;10.196;2023-04-28T08:52:29;101524.22;;;13.14;45.74
71666;BME280;59503;53.486;10.196;2023-04-28T08:54:58;101536.09;;;13.21;46.23
71666;BME280;59503;53.486;10.196;2023-04-28T08:57:25;101517.88;;;13.25;45.46
71666;BME280;59503;53.486;10.196;2023-04-28T08:59:52;101524.16;;;13.29;45.18
71666;BME280;59503;53.486;10.196;2023-04-28T09:02:18;101515.97;;;12.91;47.18
71666;BME280;59503;53.486;10.196;2023-04-28T09:04:44;101511.84;;;13.01;45.99
71666;BME280;59503;53.486;10.196;2023-04-28T09:07:11;101509.00;;;13.13;46.33
71666;BME280;59503;53.486;10.196;2023-04-28T09:09:37;101504.63;;;13.27;45.40
71666;BME280;59503;53.486;10.196;2023-04-28T09:12:02;101508.56;;;13.49;45.32
71666;BME280;59503;53.486;10.196;2023-04-28T09:14:31;101502.84;;;13.57;45.44
71666;BME280;59503;53.486;10.196;2023-04-28T09:16:57;101489.00;;;13.69;45.54
71666;BME280;59503;53.486;10.196;2023-04-28T09:19:23;101498.47;;;13.53;46.55
71666;BME280;59503;53.486;10.196;2023-04-28T09:21:55;101497.94;;;13.66;45.70
71666;BME280;59503;53.486;10.196;2023-04-28T09:24:28;101492.13;;;13.91;45.51
71666;BME280;59503;53.486;10.196;2023-04-28T09:26:54;101485.91;;;13.94;44.58
71666;BME280;59503;53.486;10.196;2023-04-28T09:29:21;101481.94;;;14.14;45.36
71666;BME280;59503;53.486;10.196;2023-04-28T09:31:46;101476.03;;;14.12;45.56
71666;BME280;59503;53.486;10.196;2023-04-28T09:34:12;101486.28;;;14.18;46.38
71666;BME280;59503;53.486;10.196;2023-04-28T09:36:37;101476.78;;;14.35;44.47
71666;BME280;59503;53.486;10.196;2023-04-28T09:39:03;101488.69;;;13.74;45.97
71666;BME280;59503;53.486;10.196;2023-04-28T09:41:35;101472.38;;;13.78;45.55
71666;BME280;59503;53.486;10.196;2023-04-28T09:44:17;101472.78;;;14.03;45.85
71666;BME280;59503;53.486;10.196;2023-04-28T09:46:46;101476.78;;;14.31;44.56
71666;BME280;59503;53.486;10.196;2023-04-28T09:49:12;101481.25;;;14.20;44.20
71666;BME280;59503;53.486;10.196;2023-04-28T09:51:38;101474.97;;;13.94;45.47
71666;BME280;59503;53.486;10.196;2023-04-28T09:54:05;101473.84;;;14.21;44.58
71666;BME280;59503;53.486;10.196;2023-04-28T09:56:32;101484.66;;;14.14;44.94
71666;BME280;59503;53.486;10.196;2023-04-28T09:58:59;101472.00;;;14.28;44.76
71666;BME280;59503;53.486;10.196;2023-04-28T10:01:36;101466.56;;;14.06;44.87
71666;BME280;59503;53.486;10.196;2023-04-28T10:04:03;101461.75;;;14.48;45.14
71666;BME280;59503;53.486;10.196;2023-04-28T10:06:29;101449.75;;;14.30;44.53
71666;BME280;59503;53.486;10.196;2023-04-28T10:08:55;101450.19;;;14.32;44.83
71666;BME280;59503;53.486;10.196;2023-04-28T10:11:23;101456.44;;;14.32;44.48
71666;BME280;59503;53.486;10.196;2023-04-28T10:13:49;101440.28;;;14.24;44.14
71666;BME280;59503;53.486;10.196;2023-04-28T10:16:15;101450.81;;;14.48;43.75
71666;BME280;59503;53.486;10.196;2023-04-28T10:18:42;101435.97;;;14.49;43.95
71666;BME280;59503;53.486;10.196;2023-04-28T10:21:07;101432.25;;;14.64;44.70
71666;BME280;59503;53.486;10.196;2023-04-28T10:26:10;101425.31;;;14.73;43.38
71666;BME280;59503;53.486;10.196;2023-04-28T10:28:43;101415.22;;;14.77;42.82
71666;BME280;59503;53.486;10.196;2023-04-28T10:31:17;101416.28;;;15.03;43.55
71666;BME280;59503;53.486;10.196;2023-04-28T10:33:44;101410.44;;;15.44;41.78
71666;BME280;59503;53.486;10.196;2023-04-28T10:36:10;101413.41;;;15.65;41.63
71666;BME280;59503;53.486;10.196;2023-04-28T10:39:13;101405.94;;;15.62;42.33
71666;BME280;59503;53.486;10.196;2023-04-28T10:41:39;101394.66;;;15.74;41.65
71666;BME280;59503;53.486;10.196;2023-04-28T10:47:01;101393.59;;;15.86;42.34
71666;BME280;59503;53.486;10.196;2023-04-28T10:55:31;101398.22;;;15.78;41.51
71666;BME280;59503;53.486;10.196;2023-04-28T11:00:40;101389.63;;;15.83;40.08
71666;BME280;59503;53.486;10.196;2023-04-28T11:03:05;101397.47;;;15.85;41.25
71666;BME280;59503;53.486;10.196;2023-04-28T11:05:31;101383.13;;;15.51;41.07
71666;BME280;59503;53.486;10.196;2023-04-28T11:11:11;101384.38;;;15.57;40.88
71666;BME280;59503;53.486;10.196;2023-04-28T11:13:37;101393.81;;;15.67;41.93
71666;BME280;59503;53.486;10.196;2023-04-28T11:16:02;101387.13;;;15.64;41.08
71666;BME280;59503;53.486;10.196;2023-04-28T11:18:51;101378.16;;;15.71;42.17
71666;BME280;59503;53.486;10.196;2023-04-28T11:21:20;101374.38;;;15.82;41.85
71666;BME280;59503;53.486;10.196;2023-04-28T11:23:46;101364.25;;;15.93;41.79
71666;BME280;59503;53.486;10.196;2023-04-28T11:26:12;101376.34;;;15.85;41.29
71666;BME280;59503;53.486;10.196;2023-04-28T11:28:56;101379.03;;;15.78;41.23
71666;BME280;59503;53.486;10.196;2023-04-28T11:31:23;101359.78;;;15.71;42.13
71666;BME280;59503;53.486;10.196;2023-04-28T11:36:27;101366.06;;;15.72;41.60
71666;BME280;59503;53.486;10.196;2023-04-28T11:38:54;101362.44;;;15.57;41.62
71666;BME280;59503;53.486;10.196;2023-04-28T11:41:20;101361.59;;;15.50;41.96
71666;BME280;59503;53.486;10.196;2023-04-28T11:43:46;101359.72;;;15.64;43.25
71666;BME280;59503;53.486;10.196;2023-04-28T11:46:19;101370.19;;;16.02;41.35
71666;BME280;59503;53.486;10.196;2023-04-28T11:48:45;101354.81;;;15.87;41.48
71666;BME280;59503;53.486;10.196;2023-04-28T11:51:30;101351.47;;;16.26;40.85
71666;BME280;59503;53.486;10.196;2023-04-28T11:53:59;101355.38;;;16.17;40.81
71666;BME280;59503;53.486;10.196;2023-04-28T11:56:26;101352.28;;;15.61;41.41
71666;BME280;59503;53.486;10.196;2023-04-28T11:59:05;101349.91;;;15.16;42.07
71666;BME280;59503;53.486;10.196;2023-04-28T12:01:33;101337.28;;;15.45;43.05
71666;BME280;59503;53.486;10.196;2023-04-28T12:04:01;101350.09;;;15.37;42.71
71666;BME280;59503;53.486;10.196;2023-04-28T12:06:27;101342.31;;;15.39;43.16
71666;BME280;59503;53.486;10.196;2023-04-28T12:08:53;101336.28;;;15.23;42.74
71666;BME280;59503;53.486;10.196;2023-04-28T12:11:18;101337.09;;;15.27;43.47
71666;BME280;59503;53.486;10.196;2023-04-28T12:14:02;101340.59;;;15.24;42.97
71666;BME280;59503;53.486;10.196;2023-04-28T12:16:40;101335.25;;;15.38;43.09
71666;BME280;59503;53.486;10.196;2023-04-28T12:19:09;101330.81;;;15.70;42.98
71666;BME280;59503;53.486;10.196;2023-04-28T12:21:36;101329.94;;;15.59;43.24
71666;BME280;59503;53.486;10.196;2023-04-28T12:24:13;101323.63;;;15.52;43.88
71666;BME280;59503;53.486;10.196;2023-04-28T12:26:39;101312.75;;;15.62;42.87
71666;BME280;59503;53.486;10.196;2023-04-28T12:29:04;101315.94;;;15.75;43.25
71666;BME280;59503;53.486;10.196;2023-04-28T12:31:29;101308.97;;;15.88;43.30
71666;BME280;59503;53.486;10.196;2023-04-28T12:33:55;101320.59;;;15.64;42.53
71666;BME280;59503;53.486;10.196;2023-04-28T12:36:20;101302.03;;;15.43;43.10
71666;BME280;59503;53.486;10.196;2023-04-28T12:38:47;101296.19;;;15.48;44.01
71666;BME280;59503;53.486;10.196;2023-04-28T12:41:12;101289.13;;;15.44;43.48
71666;BME280;59503;53.486;10.196;2023-04-28T12:43:38;101294.59;;;15.40;44.17
71666;BME280;59503;53.486;10.196;2023-04-28T12:46:04;101284.63;;;15.22;44.07
71666;BME280;59503;53.486;10.196;2023-04-28T12:48:32;101289.00;;;15.33;44.84
71666;BME280;59503;53.486;10.196;2023-04-28T12:50:58;101282.31;;;15.27;45.40
71666;BME280;59503;53.486;10.196;2023-04-28T12:53:24;101275.59;;;15.18;45.51
71666;BME280;59503;53.486;10.196;2023-04-28T12:55:49;101279.00;;;15.04;44.79
71666;BME280;59503;53.486;10.196;2023-04-28T12:58:15;101285.50;;;14.89;45.49